sensor_id;sensor_type;location;lat;lon;timestamp;P1;durP1;ratioP1;P2;durP2;ratioP2
41946;SDS011;27638;42.184;24.848;2023-06-10T00:01:47;7.60;;;6.90;;
41946;SDS011;27638;42.184;24.848;2023-06-10T00:04:16;8.63;;;6.97;;
41946;SDS011;27638;42.184;24.848;2023-06-10T00:06:45;8.57;;;6.97;;
41946;SDS011;27638;42.184;24.848;2023-06-10T00:09:13;9.60;;;7.10;;
41946;SDS011;27638;42.184;24.848;2023-06-10T00:11:39;8.13;;;6.10;;
41946;SDS011;27638;42.184;24.848;2023-06-10T00:14:05;8.52;;;6.72;;
41946;SDS011;27638;42.184;24.848;2023-06-10T00:16:31;8.27;;;6.60;;
41946;SDS011;27638;42.184;24.848;2023-06-10T00:18:56;9.05;;;6.63;;
41946;SDS011;27638;42.184;24.848;2023-06-10T00:21:29;10.07;;;7.05;;
41946;SDS011;27638;42.184;24.848;2023-06-10T00:24:08;9.70;;;6.38;;
41946;SDS011;27638;42.184;24.848;2023-06-10T00:26:40;7.82;;;6.75;;
41946;SDS011;27638;42.184;24.848;2023-06-10T00:29:06;8.15;;;6.40;;
41946;SDS011;27638;42.184;24.848;2023-06-10T00:31:36;10.52;;;6.68;;
41946;SDS011;27638;42.184;24.848;2023-06-10T00:34:02;9.52;;;6.80;;
41946;SDS011;27638;42.184;24.848;2023-06-10T00:36:28;9.85;;;6.65;;
41946;SDS011;27638;42.184;24.848;2023-06-10T00:38:54;9.23;;;6.07;;
41946;SDS011;27638;42.184;24.848;2023-06-10T00:41:19;8.20;;;6.43;;
41946;SDS011;27638;42.184;24.848;2023-06-10T00:43:45;9.38;;;6.65;;
41946;SDS011;27638;42.184;24.848;2023-06-10T00:46:11;6.68;;;5.93;;
41946;SDS011;27638;42.184;24.848;2023-06-10T00:48:37;7.03;;;6.32;;
41946;SDS011;27638;42.184;24.848;2023-06-10T00:51:04;7.30;;;6.60;;
41946;SDS011;27638;42.184;24.848;2023-06-10T00:53:30;7.88;;;6.80;;
41946;SDS011;27638;42.184;24.848;2023-06-10T00:55:57;8.40;;;6.80;;
41946;SDS011;27638;42.184;24.848;2023-06-10T00:58:24;10.02;;;6.28;;
41946;SDS011;27638;42.184;24.848;2023-06-10T01:00:50;7.47;;;6.47;;
41946;SDS011;27638;42.184;24.848;2023-06-10T01:03:17;7.60;;;6.40;;
41946;SDS011;27638;42.184;24.848;2023-06-10T01:05:43;9.35;;;6.53;;
41946;SDS011;27638;42.184;24.848;2023-06-10T01:08:50;8.57;;;6.25;;
41946;SDS011;27638;42.184;24.848;2023-06-10T01:11:34;7.65;;;6.60;;
41946;SDS011;27638;42.184;24.848;2023-06-10T01:14:06;7.82;;;7.03;;
41946;SDS011;27638;42.184;24.848;2023-06-10T01:16:34;8.50;;;6.63;;
41946;SDS011;27638;42.184;24.848;2023-06-10T01:19:02;7.68;;;6.55;;
41946;SDS011;27638;42.184;24.848;2023-06-10T01:21:28;7.88;;;5.80;;
41946;SDS011;27638;42.184;24.848;2023-06-10T01:23:54;8.45;;;6.53;;
41946;SDS011;27638;42.184;24.848;2023-06-10T01:26:22;7.88;;;6.65;;
41946;SDS011;27638;42.184;24.848;2023-06-10T01:28:59;8.32;;;6.60;;
41946;SDS011;27638;42.184;24.848;2023-06-10T01:31:38;7.28;;;6.15;;
41946;SDS011;27638;42.184;24.848;2023-06-10T01:34:14;9.70;;;6.63;;
41946;SDS011;27638;42.184;24.848;2023-06-10T01:36:46;9.90;;;6.60;;
41946;SDS011;27638;42.184;24.848;2023-06-10T01:39:13;8.00;;;6.00;;
41946;SDS011;27638;42.184;24.848;2023-06-10T01:41:43;8.10;;;6.70;;
41946;SDS011;27638;42.184;24.848;2023-06-10T01:44:09;7.20;;;6.50;;
41946;SDS011;27638;42.184;24.848;2023-06-10T01:46:35;9.13;;;7.10;;
41946;SDS011;27638;42.184;24.848;2023-06-10T01:49:01;8.30;;;7.10;;
41946;SDS011;27638;42.184;24.848;2023-06-10T01:51:27;8.43;;;6.50;;
41946;SDS011;27638;42.184;24.848;2023-06-10T01:53:52;8.30;;;6.22;;
41946;SDS011;27638;42.184;24.848;2023-06-10T01:56:18;7.38;;;6.60;;
41946;SDS011;27638;42.184;24.848;2023-06-10T01:58:44;7.07;;;6.38;;
41946;SDS011;27638;42.184;24.848;2023-06-10T02:01:11;6.75;;;6.05;;
41946;SDS011;27638;42.184;24.848;2023-06-10T02:03:36;8.02;;;6.28;;
41946;SDS011;27638;42.184;24.848;2023-06-10T02:06:02;9.23;;;6.55;;
41946;SDS011;27638;42.184;24.848;2023-06-10T02:08:28;7.90;;;6.70;;
41946;SDS011;27638;42.184;24.848;2023-06-10T02:10:54;7.18;;;6.00;;
41946;SDS011;27638;42.184;24.848;2023-06-10T02:13:19;7.30;;;5.82;;
41946;SDS011;27638;42.184;24.848;2023-06-10T02:15:45;7.68;;;6.40;;
41946;SDS011;27638;42.184;24.848;2023-06-10T02:18:10;9.90;;;7.00;;
41946;SDS011;27638;42.184;24.848;2023-06-10T02:20:37;6.28;;;5.30;;
41946;SDS011;27638;42.184;24.848;2023-06-10T02:23:03;9.77;;;6.30;;
41946;SDS011;27638;42.184;24.848;2023-06-10T02:25:29;6.55;;;5.88;;
41946;SDS011;27638;42.184;24.848;2023-06-10T02:27:54;8.18;;;6.30;;
41946;SDS011;27638;42.184;24.848;2023-06-10T02:30:20;10.68;;;6.63;;
41946;SDS011;27638;42.184;24.848;2023-06-10T02:32:46;8.25;;;6.40;;
41946;SDS011;27638;42.184;24.848;2023-06-10T02:35:13;8.48;;;6.20;;
41946;SDS011;27638;42.184;24.848;2023-06-10T02:37:39;7.93;;;7.07;;
41946;SDS011;27638;42.184;24.848;2023-06-10T02:40:05;7.85;;;6.90;;
41946;SDS011;27638;42.184;24.848;2023-06-10T02:42:31;8.07;;;6.32;;
41946;SDS011;27638;42.184;24.848;2023-06-10T02:44:56;9.60;;;7.00;;
41946;SDS011;27638;42.184;24.848;2023-06-10T02:47:22;10.32;;;7.22;;
41946;SDS011;27638;42.184;24.848;2023-06-10T02:49:47;7.55;;;6.30;;
41946;SDS011;27638;42.184;24.848;2023-06-10T02:52:13;7.88;;;6.05;;
41946;SDS011;27638;42.184;24.848;2023-06-10T02:54:38;8.60;;;5.95;;
41946;SDS011;27638;42.184;24.848;2023-06-10T02:57:04;7.47;;;5.78;;
41946;SDS011;27638;42.184;24.848;2023-06-10T02:59:31;7.03;;;6.20;;
41946;SDS011;27638;42.184;24.848;2023-06-10T03:01:56;8.73;;;6.95;;
41946;SDS011;27638;42.184;24.848;2023-06-10T03:04:22;8.40;;;6.47;;
41946;SDS011;27638;42.184;24.848;2023-06-10T03:06:48;8.93;;;6.60;;
41946;SDS011;27638;42.184;24.848;2023-06-10T03:09:14;7.75;;;6.45;;
41946;SDS011;27638;42.184;24.848;2023-06-10T03:11:39;9.00;;;6.90;;
41946;SDS011;27638;42.184;24.848;2023-06-10T03:14:05;10.77;;;6.68;;
41946;SDS011;27638;42.184;24.848;2023-06-10T03:16:30;9.40;;;6.95;;
41946;SDS011;27638;42.184;24.848;2023-06-10T03:18:56;8.25;;;6.78;;
41946;SDS011;27638;42.184;24.848;2023-06-10T03:21:21;8.45;;;6.72;;
41946;SDS011;27638;42.184;24.848;2023-06-10T03:23:47;8.13;;;6.72;;
41946;SDS011;27638;42.184;24.848;2023-06-10T03:26:13;9.38;;;7.05;;
41946;SDS011;27638;42.184;24.848;2023-06-10T03:28:39;8.80;;;7.07;;
41946;SDS011;27638;42.184;24.848;2023-06-10T03:31:05;9.55;;;7.13;;
41946;SDS011;27638;42.184;24.848;2023-06-10T03:33:30;12.30;;;7.13;;
41946;SDS011;27638;42.184;24.848;2023-06-10T03:35:56;11.88;;;7.55;;
41946;SDS011;27638;42.184;24.848;2023-06-10T03:38:21;10.05;;;8.10;;
41946;SDS011;27638;42.184;24.848;2023-06-10T03:40:47;11.48;;;7.82;;
41946;SDS011;27638;42.184;24.848;2023-06-10T03:43:12;11.88;;;7.70;;
41946;SDS011;27638;42.184;24.848;2023-06-10T03:45:38;11.25;;;7.50;;
41946;SDS011;27638;42.184;24.848;2023-06-10T03:48:03;10.02;;;6.97;;
41946;SDS011;27638;42.184;24.848;2023-06-10T03:50:29;10.95;;;7.45;;
41946;SDS011;27638;42.184;24.848;2023-06-10T03:52:55;11.68;;;7.95;;
41946;SDS011;27638;42.184;24.848;2023-06-10T03:55:20;10.02;;;7.47;;
41946;SDS011;27638;42.184;24.848;2023-06-10T03:57:47;9.93;;;7.07;;
41946;SDS011;27638;42.184;24.848;2023-06-10T04:00:13;9.00;;;6.95;;
41946;SDS011;27638;42.184;24.848;2023-06-10T04:02:40;19.35;;;8.07;;
41946;SDS011;27638;42.184;24.848;2023-06-10T04:05:15;10.30;;;7.18;;
41946;SDS011;27638;42.184;24.848;2023-06-10T04:07:41;10.70;;;7.13;;
41946;SDS011;27638;42.184;24.848;2023-06-10T04:10:08;13.00;;;7.32;;
41946;SDS011;27638;42.184;24.848;2023-06-10T04:12:35;10.50;;;7.68;;
41946;SDS011;27638;42.184;24.848;2023-06-10T04:15:01;11.20;;;7.60;;
41946;SDS011;27638;42.184;24.848;2023-06-10T04:17:26;9.82;;;7.32;;
41946;SDS011;27638;42.184;24.848;2023-06-10T04:19:52;14.80;;;8.73;;
41946;SDS011;27638;42.184;24.848;2023-06-10T04:22:18;11.50;;;8.00;;
41946;SDS011;27638;42.184;24.848;2023-06-10T04:24:44;11.52;;;7.50;;
41946;SDS011;27638;42.184;24.848;2023-06-10T04:27:10;9.60;;;8.18;;
41946;SDS011;27638;42.184;24.848;2023-06-10T04:29:35;11.60;;;7.82;;
41946;SDS011;27638;42.184;24.848;2023-06-10T04:32:01;10.63;;;8.32;;
41946;SDS011;27638;42.184;24.848;2023-06-10T04:34:27;9.00;;;7.47;;
41946;SDS011;27638;42.184;24.848;2023-06-10T04:36:53;15.57;;;7.55;;
41946;SDS011;27638;42.184;24.848;2023-06-10T04:39:18;11.15;;;7.35;;
41946;SDS011;27638;42.184;24.848;2023-06-10T04:41:45;13.07;;;7.28;;
41946;SDS011;27638;42.184;24.848;2023-06-10T04:44:11;11.23;;;7.05;;
41946;SDS011;27638;42.184;24.848;2023-06-10T04:46:36;8.65;;;7.25;;
41946;SDS011;27638;42.184;24.848;2023-06-10T04:49:02;10.68;;;7.93;;
41946;SDS011;27638;42.184;24.848;2023-06-10T04:51:27;13.15;;;8.32;;
41946;SDS011;27638;42.184;24.848;2023-06-10T04:53:53;13.77;;;9.07;;
41946;SDS011;27638;42.184;24.848;2023-06-10T04:56:18;12.48;;;8.88;;
41946;SDS011;27638;42.184;24.848;2023-06-10T04:58:45;13.25;;;9.82;;
41946;SDS011;27638;42.184;24.848;2023-06-10T05:01:10;12.95;;;9.13;;
41946;SDS011;27638;42.184;24.848;2023-06-10T05:03:36;12.10;;;9.07;;
41946;SDS011;27638;42.184;24.848;2023-06-10T05:06:01;12.85;;;9.27;;
41946;SDS011;27638;42.184;24.848;2023-06-10T05:08:27;13.95;;;9.23;;
41946;SDS011;27638;42.184;24.848;2023-06-10T05:10:52;12.57;;;9.60;;
41946;SDS011;27638;42.184;24.848;2023-06-10T05:13:17;12.25;;;8.93;;
41946;SDS011;27638;42.184;24.848;2023-06-10T05:15:43;12.85;;;9.77;;
41946;SDS011;27638;42.184;24.848;2023-06-10T05:18:09;14.15;;;9.13;;
41946;SDS011;27638;42.184;24.848;2023-06-10T05:20:37;14.57;;;8.63;;
41946;SDS011;27638;42.184;24.848;2023-06-10T05:23:03;16.75;;;9.13;;
41946;SDS011;27638;42.184;24.848;2023-06-10T05:25:30;13.65;;;8.70;;
41946;SDS011;27638;42.184;24.848;2023-06-10T05:27:56;16.05;;;8.60;;
41946;SDS011;27638;42.184;24.848;2023-06-10T05:30:21;20.67;;;11.40;;
41946;SDS011;27638;42.184;24.848;2023-06-10T05:32:47;16.67;;;11.10;;
41946;SDS011;27638;42.184;24.848;2023-06-10T05:35:13;17.83;;;12.00;;
41946;SDS011;27638;42.184;24.848;2023-06-10T05:37:39;15.55;;;11.82;;
41946;SDS011;27638;42.184;24.848;2023-06-10T05:40:04;14.23;;;10.57;;
41946;SDS011;27638;42.184;24.848;2023-06-10T05:42:31;17.00;;;13.73;;
41946;SDS011;27638;42.184;24.848;2023-06-10T05:44:56;15.50;;;11.68;;
41946;SDS011;27638;42.184;24.848;2023-06-10T05:47:21;14.65;;;12.30;;
41946;SDS011;27638;42.184;24.848;2023-06-10T05:49:47;16.58;;;11.65;;
41946;SDS011;27638;42.184;24.848;2023-06-10T05:52:14;16.48;;;11.80;;
41946;SDS011;27638;42.184;24.848;2023-06-10T05:54:40;17.17;;;14.07;;
41946;SDS011;27638;42.184;24.848;2023-06-10T05:57:05;13.20;;;9.10;;
41946;SDS011;27638;42.184;24.848;2023-06-10T05:59:31;12.93;;;9.82;;
41946;SDS011;27638;42.184;24.848;2023-06-10T06:01:56;11.88;;;9.30;;
41946;SDS011;27638;42.184;24.848;2023-06-10T06:04:22;12.55;;;10.05;;
41946;SDS011;27638;42.184;24.848;2023-06-10T06:06:47;10.38;;;9.02;;
41946;SDS011;27638;42.184;24.848;2023-06-10T06:09:13;12.50;;;10.88;;
41946;SDS011;27638;42.184;24.848;2023-06-10T06:11:38;9.25;;;8.30;;
41946;SDS011;27638;42.184;24.848;2023-06-10T06:14:03;12.82;;;9.10;;
41946;SDS011;27638;42.184;24.848;2023-06-10T06:16:29;10.73;;;9.45;;
41946;SDS011;27638;42.184;24.848;2023-06-10T06:18:54;13.27;;;11.13;;
41946;SDS011;27638;42.184;24.848;2023-06-10T06:21:20;10.82;;;9.13;;
41946;SDS011;27638;42.184;24.848;2023-06-10T06:23:45;13.10;;;9.45;;
41946;SDS011;27638;42.184;24.848;2023-06-10T06:26:11;15.10;;;10.40;;
41946;SDS011;27638;42.184;24.848;2023-06-10T06:28:36;10.98;;;8.20;;
41946;SDS011;27638;42.184;24.848;2023-06-10T06:31:02;11.20;;;9.85;;
41946;SDS011;27638;42.184;24.848;2023-06-10T06:33:27;10.07;;;8.50;;
41946;SDS011;27638;42.184;24.848;2023-06-10T06:35:53;8.95;;;7.85;;
41946;SDS011;27638;42.184;24.848;2023-06-10T06:38:18;11.40;;;8.32;;
41946;SDS011;27638;42.184;24.848;2023-06-10T06:40:44;13.80;;;12.48;;
41946;SDS011;27638;42.184;24.848;2023-06-10T06:43:09;21.30;;;16.38;;
41946;SDS011;27638;42.184;24.848;2023-06-10T06:45:34;14.15;;;9.60;;
41946;SDS011;27638;42.184;24.848;2023-06-10T06:48:00;12.35;;;7.90;;
41946;SDS011;27638;42.184;24.848;2023-06-10T06:50:25;8.65;;;7.43;;
41946;SDS011;27638;42.184;24.848;2023-06-10T06:52:51;8.25;;;7.45;;
41946;SDS011;27638;42.184;24.848;2023-06-10T06:55:16;15.60;;;8.45;;
41946;SDS011;27638;42.184;24.848;2023-06-10T06:57:42;12.40;;;9.32;;
41946;SDS011;27638;42.184;24.848;2023-06-10T07:00:07;9.13;;;7.05;;
41946;SDS011;27638;42.184;24.848;2023-06-10T07:02:34;9.63;;;7.85;;
41946;SDS011;27638;42.184;24.848;2023-06-10T07:05:00;11.23;;;8.82;;
41946;SDS011;27638;42.184;24.848;2023-06-10T07:07:26;10.80;;;7.90;;
41946;SDS011;27638;42.184;24.848;2023-06-10T07:09:51;9.73;;;7.10;;
41946;SDS011;27638;42.184;24.848;2023-06-10T07:12:17;10.95;;;7.43;;
41946;SDS011;27638;42.184;24.848;2023-06-10T07:14:43;11.52;;;7.30;;
41946;SDS011;27638;42.184;24.848;2023-06-10T07:17:09;8.63;;;6.90;;
41946;SDS011;27638;42.184;24.848;2023-06-10T07:19:35;8.02;;;6.47;;
41946;SDS011;27638;42.184;24.848;2023-06-10T07:22:00;7.05;;;5.43;;
41946;SDS011;27638;42.184;24.848;2023-06-10T07:24:26;7.88;;;6.00;;
41946;SDS011;27638;42.184;24.848;2023-06-10T07:26:51;8.15;;;5.63;;
41946;SDS011;27638;42.184;24.848;2023-06-10T07:29:17;7.13;;;6.03;;
41946;SDS011;27638;42.184;24.848;2023-06-10T07:31:42;7.88;;;5.53;;
41946;SDS011;27638;42.184;24.848;2023-06-10T07:34:08;7.38;;;5.85;;
41946;SDS011;27638;42.184;24.848;2023-06-10T07:36:33;6.82;;;5.75;;
41946;SDS011;27638;42.184;24.848;2023-06-10T07:38:58;5.75;;;5.15;;
41946;SDS011;27638;42.184;24.848;2023-06-10T07:41:24;7.93;;;5.95;;
41946;SDS011;27638;42.184;24.848;2023-06-10T07:43:50;6.10;;;5.40;;
41946;SDS011;27638;42.184;24.848;2023-06-10T07:46:20;7.88;;;5.60;;
41946;SDS011;27638;42.184;24.848;2023-06-10T07:48:46;6.22;;;5.28;;
41946;SDS011;27638;42.184;24.848;2023-06-10T07:51:12;8.43;;;5.60;;
41946;SDS011;27638;42.184;24.848;2023-06-10T07:53:37;8.70;;;5.35;;
41946;SDS011;27638;42.184;24.848;2023-06-10T07:56:03;6.97;;;5.72;;
41946;SDS011;27638;42.184;24.848;2023-06-10T07:58:29;6.43;;;5.47;;
41946;SDS011;27638;42.184;24.848;2023-06-10T08:00:54;8.63;;;5.20;;
41946;SDS011;27638;42.184;24.848;2023-06-10T08:03:20;8.63;;;5.30;;
41946;SDS011;27638;42.184;24.848;2023-06-10T08:05:45;9.35;;;5.13;;
41946;SDS011;27638;42.184;24.848;2023-06-10T08:08:11;8.27;;;6.75;;
41946;SDS011;27638;42.184;24.848;2023-06-10T08:10:36;11.57;;;6.32;;
41946;SDS011;27638;42.184;24.848;2023-06-10T08:13:01;8.65;;;7.78;;
41946;SDS011;27638;42.184;24.848;2023-06-10T08:15:27;6.88;;;5.90;;
41946;SDS011;27638;42.184;24.848;2023-06-10T08:17:52;9.68;;;5.47;;
41946;SDS011;27638;42.184;24.848;2023-06-10T08:20:18;9.45;;;5.57;;
41946;SDS011;27638;42.184;24.848;2023-06-10T08:22:43;7.80;;;6.03;;
41946;SDS011;27638;42.184;24.848;2023-06-10T08:25:09;6.20;;;5.10;;
41946;SDS011;27638;42.184;24.848;2023-06-10T08:27:35;6.05;;;5.43;;
41946;SDS011;27638;42.184;24.848;2023-06-10T08:30:00;6.68;;;5.40;;
41946;SDS011;27638;42.184;24.848;2023-06-10T08:32:26;27.52;;;7.75;;
41946;SDS011;27638;42.184;24.848;2023-06-10T08:34:51;8.48;;;6.03;;
41946;SDS011;27638;42.184;24.848;2023-06-10T08:37:17;14.40;;;6.15;;
41946;SDS011;27638;42.184;24.848;2023-06-10T08:39:42;22.33;;;5.75;;
41946;SDS011;27638;42.184;24.848;2023-06-10T08:42:14;7.65;;;5.60;;
41946;SDS011;27638;42.184;24.848;2023-06-10T08:44:48;8.05;;;6.55;;
41946;SDS011;27638;42.184;24.848;2023-06-10T08:47:19;6.72;;;5.43;;
41946;SDS011;27638;42.184;24.848;2023-06-10T08:49:47;6.40;;;4.90;;
41946;SDS011;27638;42.184;24.848;2023-06-10T08:52:16;10.82;;;5.05;;
41946;SDS011;27638;42.184;24.848;2023-06-10T08:54:51;5.20;;;4.47;;
41946;SDS011;27638;42.184;24.848;2023-06-10T08:57:19;4.70;;;4.20;;
41946;SDS011;27638;42.184;24.848;2023-06-10T08:59:46;7.72;;;4.13;;
41946;SDS011;27638;42.184;24.848;2023-06-10T09:02:13;4.57;;;4.15;;
41946;SDS011;27638;42.184;24.848;2023-06-10T09:04:40;5.50;;;4.35;;
41946;SDS011;27638;42.184;24.848;2023-06-10T09:07:08;6.55;;;4.28;;
41946;SDS011;27638;42.184;24.848;2023-06-10T09:09:34;6.20;;;4.10;;
41946;SDS011;27638;42.184;24.848;2023-06-10T09:12:00;6.97;;;4.05;;
41946;SDS011;27638;42.184;24.848;2023-06-10T09:14:26;6.40;;;4.80;;
41946;SDS011;27638;42.184;24.848;2023-06-10T09:16:51;5.75;;;4.85;;
41946;SDS011;27638;42.184;24.848;2023-06-10T09:19:21;16.95;;;7.25;;
41946;SDS011;27638;42.184;24.848;2023-06-10T09:21:48;24.55;;;6.15;;
41946;SDS011;27638;42.184;24.848;2023-06-10T09:24:13;5.07;;;4.20;;
41946;SDS011;27638;42.184;24.848;2023-06-10T09:26:39;6.07;;;4.57;;
41946;SDS011;27638;42.184;24.848;2023-06-10T09:29:05;4.82;;;4.05;;
41946;SDS011;27638;42.184;24.848;2023-06-10T09:31:37;6.50;;;4.25;;
41946;SDS011;27638;42.184;24.848;2023-06-10T09:34:11;4.13;;;3.72;;
41946;SDS011;27638;42.184;24.848;2023-06-10T09:36:38;5.45;;;3.63;;
41946;SDS011;27638;42.184;24.848;2023-06-10T09:39:05;6.57;;;4.00;;
41946;SDS011;27638;42.184;24.848;2023-06-10T09:41:40;5.13;;;4.05;;
41946;SDS011;27638;42.184;24.848;2023-06-10T09:44:13;13.45;;;4.05;;
41946;SDS011;27638;42.184;24.848;2023-06-10T09:46:40;10.45;;;6.90;;
41946;SDS011;27638;42.184;24.848;2023-06-10T09:49:06;7.57;;;5.97;;
41946;SDS011;27638;42.184;24.848;2023-06-10T09:51:32;7.78;;;4.05;;
41946;SDS011;27638;42.184;24.848;2023-06-10T09:53:58;5.55;;;4.32;;
41946;SDS011;27638;42.184;24.848;2023-06-10T09:56:37;9.20;;;4.32;;
41946;SDS011;27638;42.184;24.848;2023-06-10T09:59:03;11.38;;;4.88;;
41946;SDS011;27638;42.184;24.848;2023-06-10T10:01:31;9.20;;;4.85;;
41946;SDS011;27638;42.184;24.848;2023-06-10T10:03:58;10.65;;;4.63;;
41946;SDS011;27638;42.184;24.848;2023-06-10T10:06:23;9.10;;;4.60;;
41946;SDS011;27638;42.184;24.848;2023-06-10T10:08:50;6.78;;;4.28;;
41946;SDS011;27638;42.184;24.848;2023-06-10T10:11:17;4.97;;;4.07;;
41946;SDS011;27638;42.184;24.848;2023-06-10T10:13:47;6.32;;;4.32;;
41946;SDS011;27638;42.184;24.848;2023-06-10T10:16:15;8.48;;;4.75;;
41946;SDS011;27638;42.184;24.848;2023-06-10T10:18:51;5.28;;;4.13;;
41946;SDS011;27638;42.184;24.848;2023-06-10T10:21:22;6.32;;;3.85;;
41946;SDS011;27638;42.184;24.848;2023-06-10T10:23:53;6.32;;;4.70;;
41946;SDS011;27638;42.184;24.848;2023-06-10T10:26:28;5.75;;;4.28;;
41946;SDS011;27638;42.184;24.848;2023-06-10T10:29:20;6.70;;;4.18;;
41946;SDS011;27638;42.184;24.848;2023-06-10T10:31:48;41.55;;;8.43;;
41946;SDS011;27638;42.184;24.848;2023-06-10T10:34:16;7.85;;;4.72;;
41946;SDS011;27638;42.184;24.848;2023-06-10T10:36:46;3.78;;;3.35;;
41946;SDS011;27638;42.184;24.848;2023-06-10T10:39:13;6.40;;;3.38;;
41946;SDS011;27638;42.184;24.848;2023-06-10T10:41:40;7.03;;;3.85;;
41946;SDS011;27638;42.184;24.848;2023-06-10T10:44:06;4.20;;;3.33;;
41946;SDS011;27638;42.184;24.848;2023-06-10T10:47:09;4.43;;;3.05;;
41946;SDS011;27638;42.184;24.848;2023-06-10T10:49:30;3.92;;;3.05;;
41946;SDS011;27638;42.184;24.848;2023-06-10T10:52:02;5.30;;;3.65;;
41946;SDS011;27638;42.184;24.848;2023-06-10T10:54:34;4.55;;;3.15;;
41946;SDS011;27638;42.184;24.848;2023-06-10T10:57:12;4.70;;;3.53;;
41946;SDS011;27638;42.184;24.848;2023-06-10T11:02:32;5.88;;;3.70;;
41946;SDS011;27638;42.184;24.848;2023-06-10T11:05:08;4.90;;;3.17;;
41946;SDS011;27638;42.184;24.848;2023-06-10T11:07:36;4.30;;;3.35;;
41946;SDS011;27638;42.184;24.848;2023-06-10T11:34:23;9.65;;;3.50;;
41946;SDS011;27638;42.184;24.848;2023-06-10T11:36:50;8.40;;;3.80;;
41946;SDS011;27638;42.184;24.848;2023-06-10T11:39:16;6.05;;;3.40;;
41946;SDS011;27638;42.184;24.848;2023-06-10T11:41:43;6.80;;;3.75;;
41946;SDS011;27638;42.184;24.848;2023-06-10T11:44:11;6.50;;;3.47;;
41946;SDS011;27638;42.184;24.848;2023-06-10T11:46:40;5.47;;;3.08;;
41946;SDS011;27638;42.184;24.848;2023-06-10T11:49:07;4.93;;;3.50;;
41946;SDS011;27638;42.184;24.848;2023-06-10T11:51:39;3.83;;;3.20;;
41946;SDS011;27638;42.184;24.848;2023-06-10T11:54:09;4.15;;;3.33;;
41946;SDS011;27638;42.184;24.848;2023-06-10T11:56:34;10.88;;;3.50;;
41946;SDS011;27638;42.184;24.848;2023-06-10T11:59:04;7.00;;;3.60;;
41946;SDS011;27638;42.184;24.848;2023-06-10T12:01:32;4.03;;;2.97;;
41946;SDS011;27638;42.184;24.848;2023-06-10T12:04:09;3.80;;;2.97;;
41946;SDS011;27638;42.184;24.848;2023-06-10T12:06:49;11.60;;;4.20;;
41946;SDS011;27638;42.184;24.848;2023-06-10T12:09:29;4.70;;;2.85;;
41946;SDS011;27638;42.184;24.848;2023-06-10T12:12:01;5.13;;;2.92;;
41946;SDS011;27638;42.184;24.848;2023-06-10T12:17:20;2.60;;;2.40;;
41946;SDS011;27638;42.184;24.848;2023-06-10T12:20:02;4.30;;;2.78;;
41946;SDS011;27638;42.184;24.848;2023-06-10T12:22:36;3.80;;;2.80;;
41946;SDS011;27638;42.184;24.848;2023-06-10T12:25:10;7.32;;;3.10;;
41946;SDS011;27638;42.184;24.848;2023-06-10T12:27:37;3.80;;;2.50;;
41946;SDS011;27638;42.184;24.848;2023-06-10T12:30:04;5.63;;;2.70;;
41946;SDS011;27638;42.184;24.848;2023-06-10T12:32:43;3.50;;;2.33;;
41946;SDS011;27638;42.184;24.848;2023-06-10T12:35:20;4.32;;;2.40;;
41946;SDS011;27638;42.184;24.848;2023-06-10T12:38:02;4.35;;;2.60;;
41946;SDS011;27638;42.184;24.848;2023-06-10T12:40:36;4.80;;;2.60;;
41946;SDS011;27638;42.184;24.848;2023-06-10T12:43:05;3.60;;;2.20;;
41946;SDS011;27638;42.184;24.848;2023-06-10T12:50:36;3.17;;;2.83;;
41946;SDS011;27638;42.184;24.848;2023-06-10T12:53:06;2.78;;;2.58;;
41946;SDS011;27638;42.184;24.848;2023-06-10T12:55:32;6.47;;;2.92;;
41946;SDS011;27638;42.184;24.848;2023-06-10T12:57:58;6.50;;;3.90;;
41946;SDS011;27638;42.184;24.848;2023-06-10T13:00:25;8.73;;;4.85;;
41946;SDS011;27638;42.184;24.848;2023-06-10T13:02:54;29.02;;;6.43;;
41946;SDS011;27638;42.184;24.848;2023-06-10T13:05:19;9.30;;;4.30;;
41946;SDS011;27638;42.184;24.848;2023-06-10T13:07:45;7.13;;;4.45;;
41946;SDS011;27638;42.184;24.848;2023-06-10T13:10:15;5.45;;;4.03;;
41946;SDS011;27638;42.184;24.848;2023-06-10T13:12:41;22.77;;;5.78;;
41946;SDS011;27638;42.184;24.848;2023-06-10T13:15:07;5.18;;;4.10;;
41946;SDS011;27638;42.184;24.848;2023-06-10T13:17:33;6.07;;;3.63;;
41946;SDS011;27638;42.184;24.848;2023-06-10T13:19:59;4.68;;;3.30;;
41946;SDS011;27638;42.184;24.848;2023-06-10T13:22:26;4.43;;;3.10;;
41946;SDS011;27638;42.184;24.848;2023-06-10T13:24:52;5.55;;;3.50;;
41946;SDS011;27638;42.184;24.848;2023-06-10T13:27:17;22.88;;;5.75;;
41946;SDS011;27638;42.184;24.848;2023-06-10T13:29:43;5.13;;;3.97;;
41946;SDS011;27638;42.184;24.848;2023-06-10T13:32:08;5.03;;;3.70;;
41946;SDS011;27638;42.184;24.848;2023-06-10T13:34:35;5.00;;;4.00;;
41946;SDS011;27638;42.184;24.848;2023-06-10T13:37:01;6.50;;;3.80;;
41946;SDS011;27638;42.184;24.848;2023-06-10T13:39:28;6.40;;;3.80;;
41946;SDS011;27638;42.184;24.848;2023-06-10T13:41:54;4.63;;;4.18;;
41946;SDS011;27638;42.184;24.848;2023-06-10T13:44:20;5.18;;;3.85;;
41946;SDS011;27638;42.184;24.848;2023-06-10T13:46:45;4.90;;;3.85;;
41946;SDS011;27638;42.184;24.848;2023-06-10T13:49:11;5.15;;;3.60;;
41946;SDS011;27638;42.184;24.848;2023-06-10T13:51:36;5.10;;;3.75;;
41946;SDS011;27638;42.184;24.848;2023-06-10T13:54:02;4.28;;;3.85;;
41946;SDS011;27638;42.184;24.848;2023-06-10T13:56:27;4.47;;;3.47;;
41946;SDS011;27638;42.184;24.848;2023-06-10T13:58:53;5.35;;;4.43;;
41946;SDS011;27638;42.184;24.848;2023-06-10T14:01:18;3.60;;;3.30;;
41946;SDS011;27638;42.184;24.848;2023-06-10T14:03:44;4.85;;;3.90;;
41946;SDS011;27638;42.184;24.848;2023-06-10T14:06:10;6.78;;;4.07;;
41946;SDS011;27638;42.184;24.848;2023-06-10T14:08:38;6.35;;;3.97;;
41946;SDS011;27638;42.184;24.848;2023-06-10T14:11:03;5.43;;;3.92;;
41946;SDS011;27638;42.184;24.848;2023-06-10T14:13:28;5.95;;;3.28;;
41946;SDS011;27638;42.184;24.848;2023-06-10T14:15:54;5.35;;;3.38;;
41946;SDS011;27638;42.184;24.848;2023-06-10T14:18:20;4.55;;;3.65;;
41946;SDS011;27638;42.184;24.848;2023-06-10T14:20:45;3.75;;;3.05;;
41946;SDS011;27638;42.184;24.848;2023-06-10T14:23:11;3.70;;;3.40;;
41946;SDS011;27638;42.184;24.848;2023-06-10T14:25:36;4.93;;;3.33;;
41946;SDS011;27638;42.184;24.848;2023-06-10T14:28:02;4.07;;;3.33;;
41946;SDS011;27638;42.184;24.848;2023-06-10T14:30:28;4.95;;;3.42;;
41946;SDS011;27638;42.184;24.848;2023-06-10T14:32:53;3.75;;;3.20;;
41946;SDS011;27638;42.184;24.848;2023-06-10T14:35:19;5.22;;;3.67;;
41946;SDS011;27638;42.184;24.848;2023-06-10T14:37:45;4.57;;;3.30;;
41946;SDS011;27638;42.184;24.848;2023-06-10T14:40:11;4.45;;;3.28;;
41946;SDS011;27638;42.184;24.848;2023-06-10T14:42:36;3.80;;;3.40;;
41946;SDS011;27638;42.184;24.848;2023-06-10T14:45:02;3.55;;;3.03;;
41946;SDS011;27638;42.184;24.848;2023-06-10T14:47:28;5.03;;;3.22;;
41946;SDS011;27638;42.184;24.848;2023-06-10T14:49:54;4.10;;;3.25;;
41946;SDS011;27638;42.184;24.848;2023-06-10T14:52:20;6.47;;;3.72;;
41946;SDS011;27638;42.184;24.848;2023-06-10T14:54:45;5.25;;;4.07;;
41946;SDS011;27638;42.184;24.848;2023-06-10T14:57:11;4.75;;;3.80;;
41946;SDS011;27638;42.184;24.848;2023-06-10T14:59:36;4.18;;;3.40;;
41946;SDS011;27638;42.184;24.848;2023-06-10T15:02:02;5.20;;;3.63;;
41946;SDS011;27638;42.184;24.848;2023-06-10T15:04:27;4.38;;;3.72;;
41946;SDS011;27638;42.184;24.848;2023-06-10T15:06:53;4.32;;;3.70;;